sensor_id;sensor_type;location;lat;lon;timestamp;P1;durP1;ratioP1;P2;durP2;ratioP2
60014;SDS011;45867;52.480;6.056;2023-04-06T00:00:35;18.60;;;9.30;;
60014;SDS011;45867;52.480;6.056;2023-04-06T00:03:01;19.70;;;8.90;;
60014;SDS011;45867;52.480;6.056;2023-04-06T00:05:26;17.83;;;9.35;;
60014;SDS011;45867;52.480;6.056;2023-04-06T00:07:52;18.27;;;7.80;;
60014;SDS011;45867;52.480;6.056;2023-04-06T00:10:19;15.02;;;7.72;;
60014;SDS011;45867;52.480;6.056;2023-04-06T00:12:44;19.92;;;8.75;;
60014;SDS011;45867;52.480;6.056;2023-04-06T00:15:10;19.40;;;8.68;;
60014;SDS011;45867;52.480;6.056;2023-04-06T00:17:35;23.02;;;9.15;;
60014;SDS011;45867;52.480;6.056;2023-04-06T00:20:01;17.95;;;8.57;;
60014;SDS011;45867;52.480;6.056;2023-04-06T00:22:26;17.58;;;8.50;;
60014;SDS011;45867;52.480;6.056;2023-04-06T00:24:51;18.38;;;8.85;;
60014;SDS011;45867;52.480;6.056;2023-04-06T00:27:17;16.95;;;8.43;;
60014;SDS011;45867;52.480;6.056;2023-04-06T00:29:43;18.55;;;9.10;;
60014;SDS011;45867;52.480;6.056;2023-04-06T00:32:09;21.15;;;9.18;;
60014;SDS011;45867;52.480;6.056;2023-04-06T00:34:34;14.43;;;8.23;;
60014;SDS011;45867;52.480;6.056;2023-04-06T00:37:00;18.65;;;8.75;;
60014;SDS011;45867;52.480;6.056;2023-04-06T00:39:25;17.63;;;8.65;;
60014;SDS011;45867;52.480;6.056;2023-04-06T00:41:51;18.70;;;8.68;;
60014;SDS011;45867;52.480;6.056;2023-04-06T00:44:20;15.93;;;8.60;;
60014;SDS011;45867;52.480;6.056;2023-04-06T00:46:46;17.85;;;8.95;;
60014;SDS011;45867;52.480;6.056;2023-04-06T00:49:11;15.45;;;8.43;;
60014;SDS011;45867;52.480;6.056;2023-04-06T00:51:37;20.60;;;8.50;;
60014;SDS011;45867;52.480;6.056;2023-04-06T00:54:02;18.30;;;8.45;;
60014;SDS011;45867;52.480;6.056;2023-04-06T00:56:28;17.08;;;8.95;;
60014;SDS011;45867;52.480;6.056;2023-04-06T00:58:53;21.08;;;8.10;;
60014;SDS011;45867;52.480;6.056;2023-04-06T01:01:18;21.35;;;8.68;;
60014;SDS011;45867;52.480;6.056;2023-04-06T01:03:44;16.35;;;8.82;;
60014;SDS011;45867;52.480;6.056;2023-04-06T01:06:13;16.58;;;8.18;;
60014;SDS011;45867;52.480;6.056;2023-04-06T01:08:39;16.52;;;8.77;;
60014;SDS011;45867;52.480;6.056;2023-04-06T01:11:04;20.55;;;8.30;;
60014;SDS011;45867;52.480;6.056;2023-04-06T01:13:30;14.27;;;8.10;;
60014;SDS011;45867;52.480;6.056;2023-04-06T01:15:55;15.70;;;8.27;;
60014;SDS011;45867;52.480;6.056;2023-04-06T01:18:27;17.10;;;8.63;;
60014;SDS011;45867;52.480;6.056;2023-04-06T01:20:53;21.75;;;8.90;;
60014;SDS011;45867;52.480;6.056;2023-04-06T01:23:18;19.40;;;8.48;;
60014;SDS011;45867;52.480;6.056;2023-04-06T01:25:44;21.58;;;8.63;;
60014;SDS011;45867;52.480;6.056;2023-04-06T01:28:09;15.15;;;7.90;;
60014;SDS011;45867;52.480;6.056;2023-04-06T01:30:34;17.58;;;8.90;;
60014;SDS011;45867;52.480;6.056;2023-04-06T01:33:00;16.77;;;8.85;;
60014;SDS011;45867;52.480;6.056;2023-04-06T01:35:26;15.18;;;8.45;;
60014;SDS011;45867;52.480;6.056;2023-04-06T01:37:52;16.35;;;8.80;;
60014;SDS011;45867;52.480;6.056;2023-04-06T01:40:17;20.92;;;8.95;;
60014;SDS011;45867;52.480;6.056;2023-04-06T01:42:43;19.83;;;8.65;;
60014;SDS011;45867;52.480;6.056;2023-04-06T01:45:08;21.75;;;8.43;;
60014;SDS011;45867;52.480;6.056;2023-04-06T01:47:34;22.48;;;9.77;;
60014;SDS011;45867;52.480;6.056;2023-04-06T01:49:59;17.27;;;9.80;;
60014;SDS011;45867;52.480;6.056;2023-04-06T01:52:28;22.00;;;10.05;;
60014;SDS011;45867;52.480;6.056;2023-04-06T01:54:54;19.33;;;10.02;;
60014;SDS011;45867;52.480;6.056;2023-04-06T01:57:19;19.65;;;9.60;;
60014;SDS011;45867;52.480;6.056;2023-04-06T01:59:45;24.20;;;11.00;;
60014;SDS011;45867;52.480;6.056;2023-04-06T02:02:10;20.35;;;10.45;;
60014;SDS011;45867;52.480;6.056;2023-04-06T02:04:37;21.25;;;9.90;;
60014;SDS011;45867;52.480;6.056;2023-04-06T02:07:04;20.35;;;9.93;;
60014;SDS011;45867;52.480;6.056;2023-04-06T02:09:29;24.83;;;10.55;;
60014;SDS011;45867;52.480;6.056;2023-04-06T02:11:55;17.15;;;9.25;;
60014;SDS011;45867;52.480;6.056;2023-04-06T02:14:21;19.00;;;10.07;;
60014;SDS011;45867;52.480;6.056;2023-04-06T02:16:48;19.23;;;9.57;;
60014;SDS011;45867;52.480;6.056;2023-04-06T02:19:14;20.08;;;10.43;;
60014;SDS011;45867;52.480;6.056;2023-04-06T02:21:39;24.63;;;11.48;;
60014;SDS011;45867;52.480;6.056;2023-04-06T02:24:05;19.38;;;10.38;;
60014;SDS011;45867;52.480;6.056;2023-04-06T02:26:30;22.02;;;11.15;;
60014;SDS011;45867;52.480;6.056;2023-04-06T02:28:56;21.67;;;10.43;;
60014;SDS011;45867;52.480;6.056;2023-04-06T02:31:21;20.83;;;10.95;;
60014;SDS011;45867;52.480;6.056;2023-04-06T02:33:46;24.63;;;10.63;;
60014;SDS011;45867;52.480;6.056;2023-04-06T02:36:11;27.25;;;10.35;;
60014;SDS011;45867;52.480;6.056;2023-04-06T02:38:37;20.23;;;11.00;;
60014;SDS011;45867;52.480;6.056;2023-04-06T02:41:02;26.55;;;11.15;;
60014;SDS011;45867;52.480;6.056;2023-04-06T02:43:27;22.00;;;10.63;;
60014;SDS011;45867;52.480;6.056;2023-04-06T02:45:53;21.10;;;10.98;;
60014;SDS011;45867;52.480;6.056;2023-04-06T02:48:18;19.45;;;11.02;;
60014;SDS011;45867;52.480;6.056;2023-04-06T02:50:43;24.85;;;11.15;;
60014;SDS011;45867;52.480;6.056;2023-04-06T02:53:09;26.55;;;10.68;;
60014;SDS011;45867;52.480;6.056;2023-04-06T02:55:34;24.25;;;11.73;;
60014;SDS011;45867;52.480;6.056;2023-04-06T02:58:03;25.52;;;11.45;;
60014;SDS011;45867;52.480;6.056;2023-04-06T03:00:28;22.98;;;10.95;;
60014;SDS011;45867;52.480;6.056;2023-04-06T03:02:54;21.58;;;11.18;;
60014;SDS011;45867;52.480;6.056;2023-04-06T03:05:19;24.33;;;10.65;;
60014;SDS011;45867;52.480;6.056;2023-04-06T03:07:44;20.30;;;10.60;;
60014;SDS011;45867;52.480;6.056;2023-04-06T03:10:10;23.50;;;11.00;;
60014;SDS011;45867;52.480;6.056;2023-04-06T03:12:35;17.80;;;10.70;;
60014;SDS011;45867;52.480;6.056;2023-04-06T03:15:01;20.48;;;10.77;;
60014;SDS011;45867;52.480;6.056;2023-04-06T03:17:26;19.38;;;11.45;;
60014;SDS011;45867;52.480;6.056;2023-04-06T03:19:51;20.77;;;11.73;;
60014;SDS011;45867;52.480;6.056;2023-04-06T03:22:17;20.25;;;11.10;;
60014;SDS011;45867;52.480;6.056;2023-04-06T03:24:42;24.23;;;11.75;;
60014;SDS011;45867;52.480;6.056;2023-04-06T03:27:07;19.80;;;10.35;;
60014;SDS011;45867;52.480;6.056;2023-04-06T03:29:33;21.88;;;10.77;;
60014;SDS011;45867;52.480;6.056;2023-04-06T03:31:58;19.20;;;10.77;;
60014;SDS011;45867;52.480;6.056;2023-04-06T03:34:23;25.40;;;11.05;;
60014;SDS011;45867;52.480;6.056;2023-04-06T03:36:48;20.67;;;11.23;;
60014;SDS011;45867;52.480;6.056;2023-04-06T03:39:14;19.92;;;10.65;;
60014;SDS011;45867;52.480;6.056;2023-04-06T03:41:39;23.92;;;11.27;;
60014;SDS011;45867;52.480;6.056;2023-04-06T03:44:05;21.20;;;11.63;;
60014;SDS011;45867;52.480;6.056;2023-04-06T03:46:30;19.52;;;10.40;;
60014;SDS011;45867;52.480;6.056;2023-04-06T03:48:56;18.75;;;10.80;;
60014;SDS011;45867;52.480;6.056;2023-04-06T03:51:21;29.60;;;11.07;;
60014;SDS011;45867;52.480;6.056;2023-04-06T03:53:46;21.80;;;10.68;;
60014;SDS011;45867;52.480;6.056;2023-04-06T03:56:12;21.52;;;11.90;;
60014;SDS011;45867;52.480;6.056;2023-04-06T03:58:37;25.10;;;11.30;;
60014;SDS011;45867;52.480;6.056;2023-04-06T04:01:03;22.30;;;11.20;;
60014;SDS011;45867;52.480;6.056;2023-04-06T04:03:28;22.15;;;11.68;;
60014;SDS011;45867;52.480;6.056;2023-04-06T04:05:53;22.77;;;11.23;;
60014;SDS011;45867;52.480;6.056;2023-04-06T04:08:20;24.63;;;11.65;;
60014;SDS011;45867;52.480;6.056;2023-04-06T04:10:46;30.30;;;11.38;;
60014;SDS011;45867;52.480;6.056;2023-04-06T04:13:11;20.08;;;11.45;;
60014;SDS011;45867;52.480;6.056;2023-04-06T04:15:36;31.17;;;11.43;;
60014;SDS011;45867;52.480;6.056;2023-04-06T04:18:02;21.95;;;11.40;;
60014;SDS011;45867;52.480;6.056;2023-04-06T04:20:27;22.92;;;11.35;;
60014;SDS011;45867;52.480;6.056;2023-04-06T04:22:53;21.23;;;10.73;;
60014;SDS011;45867;52.480;6.056;2023-04-06T04:25:18;21.73;;;11.63;;
60014;SDS011;45867;52.480;6.056;2023-04-06T04:27:44;21.58;;;10.73;;
60014;SDS011;45867;52.480;6.056;2023-04-06T04:30:09;21.95;;;11.82;;
60014;SDS011;45867;52.480;6.056;2023-04-06T04:32:35;20.15;;;11.27;;
60014;SDS011;45867;52.480;6.056;2023-04-06T04:35:01;25.65;;;12.52;;
60014;SDS011;45867;52.480;6.056;2023-04-06T04:37:27;24.02;;;11.90;;
60014;SDS011;45867;52.480;6.056;2023-04-06T04:39:53;22.98;;;10.73;;
60014;SDS011;45867;52.480;6.056;2023-04-06T04:42:18;23.77;;;11.95;;
60014;SDS011;45867;52.480;6.056;2023-04-06T04:44:43;24.75;;;12.52;;
60014;SDS011;45867;52.480;6.056;2023-04-06T04:47:09;23.38;;;11.57;;
60014;SDS011;45867;52.480;6.056;2023-04-06T04:49:34;20.88;;;11.90;;
60014;SDS011;45867;52.480;6.056;2023-04-06T04:52:05;22.38;;;11.05;;
60014;SDS011;45867;52.480;6.056;2023-04-06T04:54:33;20.90;;;11.93;;
60014;SDS011;45867;52.480;6.056;2023-04-06T04:56:58;23.98;;;12.75;;
60014;SDS011;45867;52.480;6.056;2023-04-06T04:59:24;24.10;;;12.15;;
60014;SDS011;45867;52.480;6.056;2023-04-06T05:01:49;19.95;;;11.02;;
60014;SDS011;45867;52.480;6.056;2023-04-06T05:04:15;26.33;;;12.10;;
60014;SDS011;45867;52.480;6.056;2023-04-06T05:06:40;25.13;;;12.05;;
60014;SDS011;45867;52.480;6.056;2023-04-06T05:09:05;24.60;;;12.00;;
60014;SDS011;45867;52.480;6.056;2023-04-06T05:11:31;21.60;;;12.23;;
60014;SDS011;45867;52.480;6.056;2023-04-06T05:13:56;20.55;;;11.68;;
60014;SDS011;45867;52.480;6.056;2023-04-06T05:16:21;23.02;;;12.68;;
60014;SDS011;45867;52.480;6.056;2023-04-06T05:18:47;24.38;;;12.05;;
60014;SDS011;45867;52.480;6.056;2023-04-06T05:21:15;23.23;;;12.68;;
60014;SDS011;45867;52.480;6.056;2023-04-06T05:23:40;23.70;;;11.80;;
60014;SDS011;45867;52.480;6.056;2023-04-06T05:26:06;23.50;;;12.75;;
60014;SDS011;45867;52.480;6.056;2023-04-06T05:28:32;26.70;;;12.68;;
60014;SDS011;45867;52.480;6.056;2023-04-06T05:30:57;26.85;;;12.88;;
60014;SDS011;45867;52.480;6.056;2023-04-06T05:33:23;28.52;;;12.13;;
60014;SDS011;45867;52.480;6.056;2023-04-06T05:35:49;20.20;;;10.63;;
60014;SDS011;45867;52.480;6.056;2023-04-06T05:38:14;27.80;;;12.27;;
60014;SDS011;45867;52.480;6.056;2023-04-06T05:40:40;24.60;;;12.48;;
60014;SDS011;45867;52.480;6.056;2023-04-06T05:43:06;23.80;;;12.20;;
60014;SDS011;45867;52.480;6.056;2023-04-06T05:45:31;23.70;;;13.13;;
60014;SDS011;45867;52.480;6.056;2023-04-06T05:47:57;21.23;;;11.82;;
60014;SDS011;45867;52.480;6.056;2023-04-06T05:50:22;28.52;;;12.27;;
60014;SDS011;45867;52.480;6.056;2023-04-06T05:52:48;26.83;;;12.18;;
60014;SDS011;45867;52.480;6.056;2023-04-06T05:55:13;24.63;;;12.18;;
60014;SDS011;45867;52.480;6.056;2023-04-06T05:57:39;28.02;;;12.55;;
60014;SDS011;45867;52.480;6.056;2023-04-06T06:00:05;23.95;;;11.45;;
60014;SDS011;45867;52.480;6.056;2023-04-06T06:02:33;20.67;;;11.35;;
60014;SDS011;45867;52.480;6.056;2023-04-06T06:04:59;22.67;;;12.25;;
60014;SDS011;45867;52.480;6.056;2023-04-06T06:07:25;21.17;;;11.90;;
60014;SDS011;45867;52.480;6.056;2023-04-06T06:09:50;19.10;;;10.98;;
60014;SDS011;45867;52.480;6.056;2023-04-06T06:12:15;20.38;;;11.68;;
60014;SDS011;45867;52.480;6.056;2023-04-06T06:14:41;20.38;;;11.90;;
60014;SDS011;45867;52.480;6.056;2023-04-06T06:17:06;19.17;;;12.13;;
60014;SDS011;45867;52.480;6.056;2023-04-06T06:19:32;26.58;;;12.50;;
60014;SDS011;45867;52.480;6.056;2023-04-06T06:21:57;21.98;;;11.90;;
60014;SDS011;45867;52.480;6.056;2023-04-06T06:24:23;20.85;;;12.18;;
60014;SDS011;45867;52.480;6.056;2023-04-06T06:26:49;22.63;;;11.82;;
60014;SDS011;45867;52.480;6.056;2023-04-06T06:29:14;25.63;;;12.32;;
60014;SDS011;45867;52.480;6.056;2023-04-06T06:31:40;34.20;;;12.50;;
60014;SDS011;45867;52.480;6.056;2023-04-06T06:36:58;23.95;;;12.98;;
60014;SDS011;45867;52.480;6.056;2023-04-06T06:39:24;25.90;;;12.55;;
60014;SDS011;45867;52.480;6.056;2023-04-06T06:41:49;23.25;;;13.13;;
60014;SDS011;45867;52.480;6.056;2023-04-06T06:44:15;21.85;;;11.65;;
60014;SDS011;45867;52.480;6.056;2023-04-06T06:46:41;21.35;;;11.95;;
60014;SDS011;45867;52.480;6.056;2023-04-06T06:49:06;31.52;;;12.95;;
60014;SDS011;45867;52.480;6.056;2023-04-06T06:51:32;20.45;;;12.27;;
60014;SDS011;45867;52.480;6.056;2023-04-06T06:53:57;22.73;;;11.32;;
60014;SDS011;45867;52.480;6.056;2023-04-06T06:56:23;20.52;;;11.93;;
60014;SDS011;45867;52.480;6.056;2023-04-06T06:58:48;23.02;;;11.80;;
60014;SDS011;45867;52.480;6.056;2023-04-06T07:01:13;22.08;;;12.65;;
60014;SDS011;45867;52.480;6.056;2023-04-06T07:03:39;24.13;;;12.05;;
60014;SDS011;45867;52.480;6.056;2023-04-06T07:06:04;24.83;;;12.63;;
60014;SDS011;45867;52.480;6.056;2023-04-06T07:08:30;21.48;;;13.10;;
60014;SDS011;45867;52.480;6.056;2023-04-06T07:10:55;22.02;;;12.40;;
60014;SDS011;45867;52.480;6.056;2023-04-06T07:13:21;21.15;;;13.05;;
60014;SDS011;45867;52.480;6.056;2023-04-06T07:15:51;27.08;;;13.10;;
60014;SDS011;45867;52.480;6.056;2023-04-06T07:18:17;19.60;;;12.30;;
60014;SDS011;45867;52.480;6.056;2023-04-06T07:20:43;23.90;;;13.07;;
60014;SDS011;45867;52.480;6.056;2023-04-06T07:23:09;26.77;;;12.10;;
60014;SDS011;45867;52.480;6.056;2023-04-06T07:25:35;20.60;;;11.25;;
60014;SDS011;45867;52.480;6.056;2023-04-06T07:28:01;23.35;;;12.98;;
60014;SDS011;45867;52.480;6.056;2023-04-06T07:30:27;25.23;;;12.05;;
60014;SDS011;45867;52.480;6.056;2023-04-06T07:32:56;19.60;;;11.65;;
60014;SDS011;45867;52.480;6.056;2023-04-06T07:35:23;21.65;;;12.63;;
60014;SDS011;45867;52.480;6.056;2023-04-06T07:37:51;27.95;;;12.07;;
60014;SDS011;45867;52.480;6.056;2023-04-06T07:40:18;23.75;;;11.75;;
60014;SDS011;45867;52.480;6.056;2023-04-06T07:42:44;20.23;;;12.23;;
60014;SDS011;45867;52.480;6.056;2023-04-06T07:45:10;24.67;;;12.90;;
60014;SDS011;45867;52.480;6.056;2023-04-06T07:47:36;24.95;;;13.32;;
60014;SDS011;45867;52.480;6.056;2023-04-06T07:50:01;21.20;;;13.23;;
60014;SDS011;45867;52.480;6.056;2023-04-06T07:52:27;21.92;;;13.00;;
60014;SDS011;45867;52.480;6.056;2023-04-06T07:54:52;26.52;;;12.10;;
60014;SDS011;45867;52.480;6.056;2023-04-06T07:57:18;26.45;;;13.10;;
60014;SDS011;45867;52.480;6.056;2023-04-06T07:59:43;22.35;;;12.95;;
60014;SDS011;45867;52.480;6.056;2023-04-06T08:02:08;22.23;;;12.95;;
60014;SDS011;45867;52.480;6.056;2023-04-06T08:04:34;20.70;;;12.45;;
60014;SDS011;45867;52.480;6.056;2023-04-06T08:07:00;20.70;;;12.52;;
60014;SDS011;45867;52.480;6.056;2023-04-06T08:09:25;23.45;;;12.68;;
60014;SDS011;45867;52.480;6.056;2023-04-06T08:11:51;18.95;;;12.25;;
60014;SDS011;45867;52.480;6.056;2023-04-06T08:14:17;22.48;;;13.45;;
60014;SDS011;45867;52.480;6.056;2023-04-06T08:16:42;28.50;;;13.95;;
60014;SDS011;45867;52.480;6.056;2023-04-06T08:19:07;22.92;;;13.02;;
60014;SDS011;45867;52.480;6.056;2023-04-06T08:21:34;24.55;;;13.13;;
60014;SDS011;45867;52.480;6.056;2023-04-06T08:24:00;24.38;;;12.73;;
60014;SDS011;45867;52.480;6.056;2023-04-06T08:26:27;26.27;;;13.35;;
60014;SDS011;45867;52.480;6.056;2023-04-06T08:28:53;22.23;;;14.18;;
60014;SDS011;45867;52.480;6.056;2023-04-06T08:31:26;21.30;;;13.18;;
60014;SDS011;45867;52.480;6.056;2023-04-06T08:33:52;25.10;;;14.18;;
60014;SDS011;45867;52.480;6.056;2023-04-06T08:36:18;23.48;;;13.30;;
60014;SDS011;45867;52.480;6.056;2023-04-06T08:38:47;29.30;;;14.32;;
60014;SDS011;45867;52.480;6.056;2023-04-06T08:41:14;23.73;;;13.52;;
60014;SDS011;45867;52.480;6.056;2023-04-06T08:43:47;30.50;;;13.40;;
60014;SDS011;45867;52.480;6.056;2023-04-06T08:46:14;22.08;;;13.50;;
60014;SDS011;45867;52.480;6.056;2023-04-06T08:48:40;26.98;;;13.38;;
60014;SDS011;45867;52.480;6.056;2023-04-06T08:51:08;22.73;;;13.73;;
60014;SDS011;45867;52.480;6.056;2023-04-06T08:53:35;26.65;;;13.77;;
60014;SDS011;45867;52.480;6.056;2023-04-06T08:56:01;30.95;;;13.73;;
60014;SDS011;45867;52.480;6.056;2023-04-06T08:58:28;31.05;;;14.15;;
60014;SDS011;45867;52.480;6.056;2023-04-06T09:00:57;25.35;;;13.18;;
60014;SDS011;45867;52.480;6.056;2023-04-06T09:03:23;29.17;;;13.93;;
60014;SDS011;45867;52.480;6.056;2023-04-06T09:05:51;26.05;;;13.85;;
60014;SDS011;45867;52.480;6.056;2023-04-06T09:08:18;29.40;;;13.88;;
60014;SDS011;45867;52.480;6.056;2023-04-06T09:10:46;27.35;;;14.93;;
60014;SDS011;45867;52.480;6.056;2023-04-06T09:13:12;34.65;;;14.98;;
60014;SDS011;45867;52.480;6.056;2023-04-06T09:15:37;22.65;;;14.60;;
60014;SDS011;45867;52.480;6.056;2023-04-06T09:18:03;28.90;;;14.65;;
60014;SDS011;45867;52.480;6.056;2023-04-06T09:20:28;23.52;;;14.18;;
60014;SDS011;45867;52.480;6.056;2023-04-06T09:22:54;26.02;;;13.65;;
60014;SDS011;45867;52.480;6.056;2023-04-06T09:25:21;25.98;;;14.93;;
60014;SDS011;45867;52.480;6.056;2023-04-06T09:27:48;24.55;;;13.80;;
60014;SDS011;45867;52.480;6.056;2023-04-06T09:30:15;31.13;;;14.55;;
60014;SDS011;45867;52.480;6.056;2023-04-06T09:32:48;25.45;;;14.20;;
60014;SDS011;45867;52.480;6.056;2023-04-06T09:35:14;25.02;;;13.52;;
60014;SDS011;45867;52.480;6.056;2023-04-06T09:37:40;28.75;;;14.23;;
60014;SDS011;45867;52.480;6.056;2023-04-06T09:40:09;24.58;;;13.48;;
60014;SDS011;45867;52.480;6.056;2023-04-06T09:42:35;26.23;;;13.43;;
60014;SDS011;45867;52.480;6.056;2023-04-06T09:45:01;27.17;;;14.07;;
60014;SDS011;45867;52.480;6.056;2023-04-06T09:47:27;31.60;;;14.77;;
60014;SDS011;45867;52.480;6.056;2023-04-06T09:49:58;25.15;;;14.00;;
60014;SDS011;45867;52.480;6.056;2023-04-06T09:52:58;23.88;;;14.07;;
60014;SDS011;45867;52.480;6.056;2023-04-06T09:55:30;23.23;;;13.30;;
60014;SDS011;45867;52.480;6.056;2023-04-06T09:58:15;31.20;;;14.10;;
60014;SDS011;45867;52.480;6.056;2023-04-06T10:00:51;25.70;;;13.70;;
60014;SDS011;45867;52.480;6.056;2023-04-06T10:06:09;24.73;;;13.38;;
60014;SDS011;45867;52.480;6.056;2023-04-06T10:08:38;28.40;;;15.00;;
60014;SDS011;45867;52.480;6.056;2023-04-06T10:11:06;31.00;;;13.18;;
60014;SDS011;45867;52.480;6.056;2023-04-06T10:13:32;27.70;;;14.43;;
60014;SDS011;45867;52.480;6.056;2023-04-06T10:15:59;28.48;;;13.95;;
60014;SDS011;45867;52.480;6.056;2023-04-06T10:18:26;25.38;;;12.73;;
60014;SDS011;45867;52.480;6.056;2023-04-06T10:23:32;27.05;;;14.02;;
60014;SDS011;45867;52.480;6.056;2023-04-06T10:26:00;26.60;;;14.35;;
60014;SDS011;45867;52.480;6.056;2023-04-06T10:28:35;23.58;;;14.48;;
60014;SDS011;45867;52.480;6.056;2023-04-06T10:31:02;24.45;;;14.10;;
60014;SDS011;45867;52.480;6.056;2023-04-06T10:33:30;24.90;;;14.10;;
60014;SDS011;45867;52.480;6.056;2023-04-06T10:35:56;27.15;;;14.35;;
60014;SDS011;45867;52.480;6.056;2023-04-06T10:38:21;25.55;;;14.73;;
60014;SDS011;45867;52.480;6.056;2023-04-06T10:41:03;26.75;;;14.63;;
60014;SDS011;45867;52.480;6.056;2023-04-06T10:43:32;30.25;;;15.70;;
60014;SDS011;45867;52.480;6.056;2023-04-06T10:46:00;23.92;;;13.75;;
60014;SDS011;45867;52.480;6.056;2023-04-06T10:48:36;25.38;;;14.52;;
60014;SDS011;45867;52.480;6.056;2023-04-06T10:51:15;29.45;;;14.20;;
60014;SDS011;45867;52.480;6.056;2023-04-06T10:53:42;27.33;;;15.15;;
60014;SDS011;45867;52.480;6.056;2023-04-06T10:56:10;29.77;;;14.80;;
60014;SDS011;45867;52.480;6.056;2023-04-06T10:58:36;27.20;;;15.23;;
60014;SDS011;45867;52.480;6.056;2023-04-06T11:01:02;26.17;;;15.27;;
60014;SDS011;45867;52.480;6.056;2023-04-06T11:03:29;26.30;;;14.50;;
60014;SDS011;45867;52.480;6.056;2023-04-06T11:05:54;26.65;;;15.00;;
60014;SDS011;45867;52.480;6.056;2023-04-06T11:08:28;27.15;;;15.85;;
60014;SDS011;45867;52.480;6.056;2023-04-06T11:11:08;28.73;;;15.68;;
60014;SDS011;45867;52.480;6.056;2023-04-06T11:13:48;30.83;;;15.45;;
60014;SDS011;45867;52.480;6.056;2023-04-06T11:16:19;29.42;;;15.85;;
60014;SDS011;45867;52.480;6.056;2023-04-06T11:18:55;25.33;;;13.93;;
60014;SDS011;45867;52.480;6.056;2023-04-06T11:24:10;28.45;;;14.18;;
60014;SDS011;45867;52.480;6.056;2023-04-06T11:26:37;28.67;;;15.02;;
60014;SDS011;45867;52.480;6.056;2023-04-06T11:29:20;27.88;;;15.63;;
60014;SDS011;45867;52.480;6.056;2023-04-06T11:31:50;27.45;;;16.63;;
60014;SDS011;45867;52.480;6.056;2023-04-06T11:34:21;33.03;;;16.17;;
60014;SDS011;45867;52.480;6.056;2023-04-06T11:36:59;31.60;;;16.50;;
60014;SDS011;45867;52.480;6.056;2023-04-06T11:39:30;32.15;;;15.27;;
60014;SDS011;45867;52.480;6.056;2023-04-06T11:41:58;29.27;;;15.18;;
60014;SDS011;45867;52.480;6.056;2023-04-06T11:47:00;31.08;;;16.55;;
60014;SDS011;45867;52.480;6.056;2023-04-06T11:49:31;28.77;;;15.32;;
60014;SDS011;45867;52.480;6.056;2023-04-06T11:51:58;31.85;;;14.68;;
60014;SDS011;45867;52.480;6.056;2023-04-06T11:54:34;25.27;;;12.85;;
60014;SDS011;45867;52.480;6.056;2023-04-06T11:57:04;26.80;;;12.75;;
60014;SDS011;45867;52.480;6.056;2023-04-06T11:59:30;20.52;;;11.35;;
60014;SDS011;45867;52.480;6.056;2023-04-06T12:02:02;23.98;;;11.30;;
60014;SDS011;45867;52.480;6.056;2023-04-06T12:04:28;15.80;;;7.57;;
60014;SDS011;45867;52.480;6.056;2023-04-06T12:06:53;14.55;;;9.00;;
60014;SDS011;45867;52.480;6.056;2023-04-06T12:09:19;19.38;;;8.80;;
60014;SDS011;45867;52.480;6.056;2023-04-06T12:11:45;18.55;;;8.40;;
60014;SDS011;45867;52.480;6.056;2023-04-06T12:14:10;18.27;;;8.50;;
60014;SDS011;45867;52.480;6.056;2023-04-06T12:16:36;14.52;;;7.75;;
60014;SDS011;45867;52.480;6.056;2023-04-06T12:19:02;12.70;;;7.55;;
60014;SDS011;45867;52.480;6.056;2023-04-06T12:21:31;15.48;;;6.88;;
60014;SDS011;45867;52.480;6.056;2023-04-06T12:23:59;16.73;;;8.07;;
60014;SDS011;45867;52.480;6.056;2023-04-06T12:26:25;15.45;;;8.32;;
60014;SDS011;45867;52.480;6.056;2023-04-06T12:28:51;15.18;;;8.82;;
60014;SDS011;45867;52.480;6.056;2023-04-06T12:31:17;16.02;;;7.85;;
60014;SDS011;45867;52.480;6.056;2023-04-06T12:33:43;14.00;;;8.27;;
60014;SDS011;45867;52.480;6.056;2023-04-06T12:36:12;17.25;;;8.50;;
60014;SDS011;45867;52.480;6.056;2023-04-06T12:38:38;15.60;;;8.27;;
60014;SDS011;45867;52.480;6.056;2023-04-06T12:41:05;17.08;;;8.75;;
60014;SDS011;45867;52.480;6.056;2023-04-06T12:43:31;16.05;;;8.50;;
60014;SDS011;45867;52.480;6.056;2023-04-06T12:45:56;22.58;;;9.38;;
60014;SDS011;45867;52.480;6.056;2023-04-06T12:48:23;17.23;;;9.73;;
60014;SDS011;45867;52.480;6.056;2023-04-06T12:50:59;17.13;;;9.52;;
60014;SDS011;45867;52.480;6.056;2023-04-06T12:53:26;19.77;;;10.48;;
60014;SDS011;45867;52.480;6.056;2023-04-06T12:55:55;23.95;;;11.20;;
60014;SDS011;45867;52.480;6.056;2023-04-06T12:58:22;22.73;;;12.15;;
60014;SDS011;45867;52.480;6.056;2023-04-06T13:00:54;22.90;;;12.07;;
60014;SDS011;45867;52.480;6.056;2023-04-06T13:03:21;16.67;;;10.88;;
60014;SDS011;45867;52.480;6.056;2023-04-06T13:05:47;25.20;;;11.85;;
60014;SDS011;45867;52.480;6.056;2023-04-06T13:08:14;20.02;;;11.25;;
60014;SDS011;45867;52.480;6.056;2023-04-06T13:10:46;23.17;;;11.00;;
60014;SDS011;45867;52.480;6.056;2023-04-06T13:13:13;19.70;;;11.70;;
60014;SDS011;45867;52.480;6.056;2023-04-06T13:15:39;24.55;;;13.45;;
60014;SDS011;45867;52.480;6.056;2023-04-06T13:18:04;23.90;;;13.15;;
60014;SDS011;45867;52.480;6.056;2023-04-06T13:20:30;23.15;;;12.85;;
60014;SDS011;45867;52.480;6.056;2023-04-06T13:22:55;29.05;;;12.43;;
60014;SDS011;45867;52.480;6.056;2023-04-06T13:25:20;23.75;;;13.50;;
60014;SDS011;45867;52.480;6.056;2023-04-06T13:27:46;22.58;;;13.18;;
60014;SDS011;45867;52.480;6.056;2023-04-06T13:30:13;24.25;;;13.52;;
60014;SDS011;45867;52.480;6.056;2023-04-06T13:32:39;26.85;;;14.32;;
60014;SDS011;45867;52.480;6.056;2023-04-06T13:35:05;21.83;;;12.32;;
60014;SDS011;45867;52.480;6.056;2023-04-06T13:37:31;23.42;;;13.68;;
60014;SDS011;45867;52.480;6.056;2023-04-06T13:39:57;24.40;;;13.23;;
60014;SDS011;45867;52.480;6.056;2023-04-06T13:42:23;24.05;;;13.80;;
60014;SDS011;45867;52.480;6.056;2023-04-06T13:44:48;23.50;;;13.68;;
60014;SDS011;45867;52.480;6.056;2023-04-06T13:47:15;24.50;;;13.02;;
60014;SDS011;45867;52.480;6.056;2023-04-06T13:49:41;22.80;;;12.60;;
60014;SDS011;45867;52.480;6.056;2023-04-06T13:52:06;25.13;;;12.50;;
60014;SDS011;45867;52.480;6.056;2023-04-06T13:54:31;23.58;;;12.35;;
60014;SDS011;45867;52.480;6.056;2023-04-06T13:56:57;19.70;;;11.52;;
60014;SDS011;45867;52.480;6.056;2023-04-06T13:59:22;19.48;;;10.52;;
60014;SDS011;45867;52.480;6.056;2023-04-06T14:01:48;20.30;;;10.55;;
60014;SDS011;45867;52.480;6.056;2023-04-06T14:04:13;20.85;;;9.43;;
60014;SDS011;45867;52.480;6.056;2023-04-06T14:06:38;20.90;;;8.63;;
60014;SDS011;45867;52.480;6.056;2023-04-06T14:09:04;16.80;;;8.55;;
60014;SDS011;45867;52.480;6.056;2023-04-06T14:11:29;21.65;;;9.05;;
60014;SDS011;45867;52.480;6.056;2023-04-06T14:13:56;15.02;;;8.70;;
60014;SDS011;45867;52.480;6.056;2023-04-06T14:16:23;14.98;;;8.82;;
60014;SDS011;45867;52.480;6.056;2023-04-06T14:18:48;11.95;;;7.18;;
60014;SDS011;45867;52.480;6.056;2023-04-06T14:21:14;12.13;;;6.50;;
60014;SDS011;45867;52.480;6.056;2023-04-06T14:23:39;11.32;;;5.97;;
60014;SDS011;45867;52.480;6.056;2023-04-06T14:26:06;10.93;;;5.10;;
60014;SDS011;45867;52.480;6.056;2023-04-06T14:28:33;9.90;;;5.90;;
60014;SDS011;45867;52.480;6.056;2023-04-06T14:31:00;12.65;;;7.07;;
60014;SDS011;45867;52.480;6.056;2023-04-06T14:33:29;13.65;;;6.93;;